createdAt,value
2022-07-25T00:01:38.771Z,46.01
2022-07-25T00:06:47.890Z,46.00
2022-07-25T00:11:50.686Z,45.08
2022-07-25T00:16:53.432Z,45.95
2022-07-25T00:27:19.193Z,44.41
2022-07-25T00:32:22.206Z,45.11
2022-07-25T00:37:25.008Z,45.93
2022-07-25T00:42:33.701Z,45.90
2022-07-25T00:47:37.623Z,45.05
2022-07-25T00:52:40.649Z,45.81
2022-07-25T01:03:02.107Z,44.64
2022-07-25T01:08:05.471Z,45.15
2022-07-25T01:13:08.436Z,46.01
2022-07-25T01:18:16.507Z,45.85
2022-07-25T01:23:24.561Z,45.04
2022-07-25T01:28:27.475Z,45.00
2022-07-25T01:33:30.282Z,45.83
2022-07-25T01:38:38.351Z,45.80
2022-07-25T01:43:41.700Z,45.13
2022-07-25T01:48:44.679Z,45.73
2022-07-25T01:53:52.748Z,45.84
2022-07-25T01:58:55.957Z,45.06
2022-07-25T02:03:58.720Z,45.75
2022-07-25T02:09:06.786Z,45.61
2022-07-25T02:14:09.677Z,45.12
2022-07-25T02:19:12.811Z,45.75
2022-07-25T02:24:20.856Z,45.82
2022-07-25T02:29:23.596Z,45.31
2022-07-25T02:34:26.444Z,46.01
2022-07-25T02:39:34.488Z,46.16
2022-07-25T02:44:37.231Z,45.48
2022-07-25T02:49:39.993Z,46.16
2022-07-25T02:54:48.040Z,46.17
2022-07-25T02:59:50.792Z,45.55
2022-07-25T03:04:53.548Z,46.10
2022-07-25T03:10:01.625Z,46.01
2022-07-25T03:15:06.134Z,45.53
2022-07-25T03:20:09.932Z,46.23
2022-07-25T03:25:21.458Z,46.05
2022-07-25T03:30:24.821Z,45.66
2022-07-25T03:40:46.194Z,45.29
2022-07-25T03:45:48.938Z,45.58
2022-07-25T03:50:51.753Z,46.01
2022-07-25T03:55:59.826Z,46.16
2022-07-25T04:01:02.638Z,45.61
2022-07-25T04:06:07.400Z,45.70
2022-07-25T04:11:15.443Z,45.75
2022-07-25T04:16:22.373Z,45.29
2022-07-25T04:21:26.268Z,45.54
2022-07-25T04:26:34.353Z,45.61
2022-07-25T04:31:37.162Z,44.98
2022-07-25T04:36:39.979Z,45.18
2022-07-25T04:41:48.075Z,45.03
2022-07-25T04:46:50.894Z,44.59
2022-07-25T04:51:53.661Z,44.72
2022-07-25T05:02:15.108Z,43.93
2022-07-25T05:07:17.860Z,43.65
2022-07-25T05:17:39.536Z,43.35
2022-07-25T05:22:43.155Z,42.92
2022-07-25T05:27:49.643Z,42.24
2022-07-25T05:32:57.704Z,42.14
2022-07-25T05:38:00.473Z,42.25
2022-07-25T05:43:23.599Z,41.64
2022-07-25T05:53:50.585Z,41.52
2022-07-25T05:58:53.428Z,40.67
2022-07-25T06:03:56.228Z,39.91
2022-07-25T06:09:07.981Z,39.28
2022-07-25T06:19:29.951Z,39.91
2022-07-25T06:24:32.770Z,39.04
2022-07-25T06:29:35.857Z,38.61
2022-07-25T06:34:43.870Z,37.74
2022-07-25T06:45:05.544Z,38.58
2022-07-25T06:50:11.324Z,37.37
2022-07-25T06:55:16.005Z,36.22
2022-07-25T07:00:24.572Z,35.41
2022-07-25T07:05:29.207Z,35.79
2022-07-25T07:10:32.397Z,34.34
2022-07-25T07:15:41.113Z,33.95
2022-07-25T07:20:44.030Z,34.75
2022-07-25T07:25:47.683Z,32.46
2022-07-25T07:36:18.921Z,33.62
2022-07-25T07:41:21.937Z,31.60
2022-07-25T07:46:30.106Z,31.78
2022-07-25T07:51:32.913Z,32.23
2022-07-25T08:01:54.345Z,32.53
2022-07-25T08:06:57.160Z,31.12
2022-07-25T08:11:59.902Z,28.97
2022-07-25T08:17:07.929Z,28.71
2022-07-25T08:22:15.545Z,30.37
2022-07-25T08:27:18.282Z,28.44
2022-07-25T08:32:26.406Z,27.83
2022-07-25T08:37:29.354Z,29.39
2022-07-25T08:42:34.278Z,27.20
2022-07-25T08:47:42.340Z,26.41
2022-07-25T08:52:46.950Z,28.59
2022-07-25T08:57:52.225Z,25.67
2022-07-25T09:03:02.226Z,26.13
2022-07-25T09:08:08.962Z,27.10
2022-07-25T09:18:32.794Z,28.06
2022-07-25T09:23:37.008Z,27.14
2022-07-25T09:28:41.669Z,24.87
2022-07-25T09:33:52.989Z,25.54
2022-07-25T09:38:56.856Z,26.85
2022-07-25T09:43:59.686Z,24.26
2022-07-25T09:49:08.959Z,23.58
2022-07-25T09:54:11.738Z,25.59
2022-07-25T09:59:14.491Z,23.65
2022-07-25T10:04:25.574Z,23.73
2022-07-25T10:09:28.859Z,25.10
2022-07-25T10:14:31.676Z,22.29
2022-07-25T10:20:04.225Z,22.58
2022-07-25T10:25:15.914Z,24.95
2022-07-25T10:30:22.827Z,24.42
2022-07-25T10:40:50.746Z,24.91
2022-07-25T10:45:57.189Z,22.47
2022-07-25T10:51:02.304Z,21.41
2022-07-25T10:56:14.715Z,21.99
2022-07-25T11:06:38.282Z,24.12
2022-07-25T11:11:42.706Z,23.58
2022-07-25T11:16:46.881Z,21.29
2022-07-25T11:21:57.739Z,20.80
2022-07-25T11:27:00.638Z,23.06
2022-07-25T11:32:05.856Z,21.52
2022-07-25T11:37:15.166Z,21.32
2022-07-25T11:42:20.401Z,22.67
2022-07-25T11:47:25.650Z,20.04
2022-07-25T11:52:36.148Z,20.69
2022-07-25T11:57:41.369Z,21.72
2022-07-25T12:02:44.835Z,21.85
2022-07-25T12:07:55.765Z,20.15
2022-07-25T12:12:58.990Z,21.50
2022-07-25T12:18:01.723Z,19.80
2022-07-25T12:23:11.545Z,20.07
2022-07-25T12:28:15.088Z,21.09
2022-07-25T12:33:17.821Z,20.33
2022-07-25T12:38:25.949Z,19.87
2022-07-25T12:43:28.707Z,21.58
2022-07-25T12:48:31.550Z,20.32
2022-07-25T12:53:42.408Z,19.08
2022-07-25T12:58:45.546Z,20.25
2022-07-25T13:03:48.521Z,19.65
2022-07-25T13:08:56.646Z,19.43
2022-07-25T13:19:18.778Z,21.32
2022-07-25T13:24:21.521Z,21.35
2022-07-25T13:29:24.229Z,19.84
2022-07-25T13:34:32.872Z,20.10
2022-07-25T13:44:54.221Z,21.96
2022-07-25T13:49:57.044Z,20.73
2022-07-25T13:54:59.809Z,20.95
2022-07-25T14:00:08.997Z,21.07
2022-07-25T14:05:12.053Z,22.28
2022-07-25T14:10:14.860Z,21.20
2022-07-25T14:15:22.983Z,21.59
2022-07-25T14:20:25.877Z,22.41
2022-07-25T14:25:28.651Z,21.47
2022-07-25T14:30:36.829Z,21.01
2022-07-25T14:35:40.120Z,22.44
2022-07-25T14:40:42.990Z,21.43
2022-07-25T14:45:51.012Z,21.70
2022-07-25T14:50:53.760Z,22.32
2022-07-25T14:55:56.519Z,22.01
2022-07-25T15:01:05.034Z,21.82
2022-07-25T15:06:08.429Z,23.17
2022-07-25T15:11:11.434Z,22.44
2022-07-25T15:21:37.834Z,23.86
2022-07-25T15:26:40.767Z,24.17
2022-07-25T15:31:43.643Z,23.76
2022-07-25T15:36:51.733Z,23.42
2022-07-25T15:41:54.487Z,23.94
2022-07-25T15:46:57.373Z,23.02
2022-07-25T15:52:06.018Z,23.28
2022-07-25T15:57:08.748Z,24.15
2022-07-25T16:02:11.457Z,23.43
2022-07-25T16:07:19.478Z,23.78
2022-07-25T16:12:25.279Z,25.01
2022-07-25T16:17:31.924Z,23.95
2022-07-25T16:22:39.969Z,32.82
2022-07-25T16:27:42.726Z,34.97
2022-07-25T16:32:45.504Z,39.62
2022-07-25T16:37:53.579Z,41.45
2022-07-25T16:42:56.321Z,42.05
2022-07-25T16:47:59.089Z,45.89
2022-07-25T16:53:07.280Z,46.02
2022-07-25T16:58:10.014Z,42.97
2022-07-25T17:03:13.871Z,49.01
2022-07-25T17:13:39.338Z,42.95
2022-07-25T17:18:42.120Z,46.87
2022-07-25T17:29:07.374Z,44.91
2022-07-25T17:34:10.336Z,47.10
2022-07-25T17:39:13.099Z,51.57
2022-07-25T17:44:21.162Z,53.03
2022-07-25T17:49:23.988Z,48.44
2022-07-25T17:54:26.799Z,51.07
2022-07-25T17:59:35.475Z,51.71
2022-07-25T18:04:38.343Z,49.26
2022-07-25T18:09:41.324Z,52.85
2022-07-25T18:14:49.528Z,51.74
2022-07-25T18:19:53.201Z,48.76
2022-07-25T18:24:55.969Z,53.65
2022-07-25T18:30:04.508Z,55.10
2022-07-25T18:35:08.301Z,51.45
2022-07-25T18:40:12.229Z,54.85
2022-07-25T18:45:20.986Z,56.00
2022-07-25T18:50:24.630Z,53.72
2022-07-25T18:55:27.497Z,55.47
2022-07-25T19:00:35.508Z,55.23
2022-07-25T19:10:57.867Z,53.89
2022-07-25T19:16:01.816Z,54.65
2022-07-25T19:21:04.899Z,57.49
2022-07-25T19:26:13.819Z,58.39
2022-07-25T19:31:17.053Z,55.93
2022-07-25T19:36:19.879Z,58.38
2022-07-25T19:41:28.241Z,58.05
2022-07-25T19:51:49.627Z,56.44
2022-07-25T19:56:52.376Z,56.99
2022-07-25T20:01:55.216Z,60.66
2022-07-25T20:07:03.283Z,61.27
2022-07-25T20:12:06.979Z,57.57
2022-07-25T20:17:09.878Z,60.52
2022-07-25T20:22:17.952Z,59.95
2022-07-25T20:32:39.277Z,55.75
2022-07-25T20:37:42.053Z,57.96
2022-07-25T20:42:44.795Z,60.95
2022-07-25T20:47:52.846Z,61.47
2022-07-25T21:08:40.994Z,57.21
2022-07-25T21:13:43.784Z,59.06
2022-07-25T21:18:46.594Z,62.47
2022-07-25T21:23:54.918Z,62.51
2022-07-25T21:28:57.683Z,58.55
2022-07-25T21:34:01.111Z,61.44
2022-07-25T21:39:09.732Z,62.34
2022-07-25T21:44:13.276Z,59.86
2022-07-25T21:49:16.067Z,62.50
2022-07-25T21:54:24.596Z,62.90
2022-07-25T21:59:27.325Z,60.04
2022-07-25T22:04:30.118Z,62.60
2022-07-25T22:09:38.214Z,62.20
2022-07-25T22:14:40.915Z,59.43
2022-07-25T22:19:43.709Z,61.73
2022-07-25T22:24:51.845Z,62.86
2022-07-25T22:29:54.566Z,61.33
2022-07-25T22:34:57.329Z,63.08
2022-07-25T22:45:24.407Z,58.92
2022-07-25T22:50:27.219Z,60.72
2022-07-25T23:00:48.581Z,60.19
2022-07-25T23:05:51.326Z,61.71
2022-07-25T23:10:58.154Z,64.50
2022-07-25T23:16:10.461Z,64.66
2022-07-25T23:21:13.478Z,62.29
2022-07-25T23:26:16.387Z,64.82
2022-07-25T23:31:24.951Z,65.08
2022-07-25T23:36:27.753Z,62.94
2022-07-25T23:41:30.537Z,65.46
2022-07-25T23:46:39.134Z,65.65
2022-07-25T23:51:41.993Z,63.06
2022-07-25T23:56:44.952Z,65.89
